Time;durP1;ratioP1;P1;durP2;ratioP2;P2;SDS_P1;SDS_P2;PMS_P1;PMS_P2;Temp;Humidity;BMP_temperature;BMP_pressure;BME280_temperature;BME280_humidity;BME280_pressure;Samples;Min_cycle;Max_cycle;Signal;HPM_P1;HPM_P2
2022/01/13 00:01:03;;;;;;;239.23;33.28;;;;;;;0.92;100.00;104140.03;5349356;27;20497;-86
2022/01/13 00:03:34;;;;;;;272.23;35.60;;;;;;;0.94;100.00;104133.88;5348853;27;20048;-85
2022/01/13 00:06:05;;;;;;;233.15;39.42;;;;;;;0.91;100.00;104131.25;5350476;27;20425;-86
2022/01/13 00:08:37;;;;;;;190.70;36.75;;;;;;;0.92;100.00;104143.50;5348719;27;20077;-86
2022/01/13 00:11:08;;;;;;;243.82;35.55;;;;;;;0.85;100.00;104146.16;5350858;27;20437;-86
2022/01/13 00:13:56;;;;;;;247.20;37.67;;;;;;;0.83;100.00;104153.16;5350884;27;20024;-86
2022/01/13 00:16:42;;;;;;;258.20;42.28;;;;;;;0.88;100.00;104154.91;5351025;27;20019;-85
2022/01/13 00:24:46;;;;;;;;;;;;;;;0.90;100.00;104145.25;5331775;27;20475;-85
2022/01/13 00:27:18;;;;;;;291.75;39.58;;;;;;;0.87;100.00;104153.16;5349444;27;19919;-86
2022/01/13 00:29:49;;;;;;;257.15;35.80;;;;;;;0.81;100.00;104150.53;5350373;27;20081;-86
2022/01/13 00:32:23;;;;;;;260.42;34.47;;;;;;;0.84;100.00;104149.63;5350981;27;20024;-86
2022/01/13 00:34:54;;;;;;;194.98;32.90;;;;;;;0.91;100.00;104156.66;5349383;27;20035;-85
2022/01/13 00:37:26;;;;;;;211.10;32.33;;;;;;;0.89;100.00;104153.16;5351545;27;20027;-86
2022/01/13 00:39:58;;;;;;;238.75;37.28;;;;;;;0.89;100.00;104161.03;5352082;27;20019;-86
2022/01/13 00:42:29;;;;;;;228.23;38.00;;;;;;;0.86;100.00;104154.03;5350886;27;20043;-87
2022/01/13 00:45:03;;;;;;;231.93;40.53;;;;;;;0.94;100.00;104147.00;5351592;27;20052;-87
2022/01/13 00:47:36;;;;;;;210.90;47.05;;;;;;;1.03;100.00;104146.13;5350400;27;20403;-86
2022/01/13 00:50:08;;;;;;;252.88;37.78;;;;;;;1.02;100.00;104139.16;5351486;27;20034;-87
2022/01/13 00:52:40;;;;;;;248.32;39.97;;;;;;;0.94;100.00;104128.63;5350284;27;20023;-87
2022/01/13 00:55:17;;;;;;;166.77;30.00;;;;;;;0.92;100.00;104140.03;5350398;27;20039;-86
2022/01/13 00:57:49;;;;;;;213.68;32.03;;;;;;;0.86;100.00;104140.00;5350697;27;20030;-87
2022/01/13 01:00:20;;;;;;;192.50;29.75;;;;;;;0.89;100.00;104137.38;5347552;27;20035;-87
2022/01/13 01:02:52;;;;;;;203.10;32.90;;;;;;;0.90;100.00;104136.50;5346171;27;20047;-86
2022/01/13 01:05:23;;;;;;;215.07;39.42;;;;;;;0.94;100.00;104127.75;5347191;27;20042;-87
2022/01/13 01:07:55;;;;;;;236.32;38.90;;;;;;;0.83;100.00;104135.63;5346519;27;20032;-86
2022/01/13 01:10:26;;;;;;;203.85;30.88;;;;;;;0.68;100.00;104115.44;5346992;27;20103;-87
2022/01/13 01:13:10;;;;;;;230.77;40.05;;;;;;;0.81;100.00;104134.75;5346979;27;20032;-86
2022/01/13 01:15:46;;;;;;;227.65;32.20;;;;;;;0.56;100.00;104110.19;5344352;27;20030;-87
2022/01/13 01:18:30;;;;;;;216.88;35.55;;;;;;;0.73;100.00;104124.22;5349979;27;20022;-87
2022/01/13 01:29:16;;;;;;;201.68;32.97;;;;;;;0.60;100.00;104127.72;5346050;27;20412;-87
2022/01/13 01:31:51;;;;;;;225.45;38.13;;;;;;;0.75;100.00;104143.50;5345723;27;20019;-87
2022/01/13 01:34:54;;;;;;;229.15;41.08;;;;;;;0.86;100.00;104140.00;5345544;27;20487;-86
2022/01/13 01:37:27;;;;;;;207.52;35.88;;;;;;;0.71;100.00;104141.75;5343009;27;20091;-87
2022/01/13 01:39:59;;;;;;;206.18;31.20;;;;;;;0.68;100.00;104143.47;5345875;27;20035;-86
2022/01/13 01:42:30;;;;;;;202.57;34.53;;;;;;;0.67;100.00;104147.88;5345731;27;20126;-86
2022/01/13 01:45:04;;;;;;;175.02;30.90;;;;;;;0.61;100.00;104144.34;5344156;27;20428;-86
2022/01/13 01:47:36;;;;;;;181.38;34.13;;;;;;;0.58;100.00;104116.34;5346975;27;20076;-87
2022/01/13 01:50:17;;;;;;;195.10;31.42;;;;;;;0.51;100.00;104130.34;5347348;27;20111;-86
2022/01/13 01:52:51;;;;;;;196.60;36.28;;;;;;;0.63;100.00;104118.94;5345388;27;20031;-86
2022/01/13 01:55:22;;;;;;;212.57;30.25;;;;;;;0.58;100.00;104129.47;5344062;27;20016;-87
2022/01/13 01:57:54;;;;;;;214.18;31.40;;;;;;;0.62;100.00;104120.72;5346989;27;20028;-86
2022/01/13 02:00:27;;;;;;;236.40;37.38;;;;;;;0.51;100.00;104102.31;5342554;27;20368;-86
2022/01/13 02:02:59;;;;;;;236.32;36.30;;;;;;;0.51;100.00;104109.31;5347350;27;20055;-86
2022/01/13 02:05:31;;;;;;;218.95;31.05;;;;;;;0.57;100.00;104111.94;5348278;27;20490;-86
2022/01/13 02:08:05;;;;;;;169.63;29.92;;;;;;;0.64;100.00;104113.69;5349759;27;20399;-86
2022/01/13 02:10:36;;;;;;;194.75;33.38;;;;;;;0.68;100.00;104117.22;5350714;27;20020;-86
2022/01/13 02:13:11;;;;;;;193.05;36.92;;;;;;;0.83;100.00;104119.00;5346862;27;20031;-87
2022/01/13 02:16:01;;;;;;;227.07;29.92;;;;;;;0.49;100.00;104104.06;5349297;27;20024;-87
2022/01/13 02:18:33;;;;;;;214.48;29.08;;;;;;;0.62;100.00;104125.09;5348940;27;20418;-87
2022/01/13 02:21:05;;;;;;;201.75;34.13;;;;;;;0.88;100.00;104125.13;5347468;27;20118;-87
2022/01/13 02:23:41;;;;;;;202.20;32.20;;;;;;;0.79;100.00;104127.72;5349831;27;20448;-87
2022/01/13 02:26:14;;;;;;;184.13;31.80;;;;;;;0.68;100.00;104125.97;5348988;27;20020;-87
2022/01/13 02:28:45;;;;;;;187.25;27.63;;;;;;;0.72;100.00;104138.25;5351333;27;20729;-87
2022/01/13 02:31:16;;;;;;;212.80;26.08;;;;;;;0.65;100.00;104143.47;5350409;27;20038;-87
2022/01/13 02:33:48;;;;;;;207.88;30.48;;;;;;;0.67;100.00;104137.38;5348752;27;20020;-87
2022/01/13 02:36:20;;;;;;;190.38;30.15;;;;;;;0.67;100.00;104126.84;5349091;27;20440;-87
2022/01/13 02:38:54;;;;;;;183.43;30.33;;;;;;;0.73;100.00;104120.72;5350519;27;20024;-87
2022/01/13 02:41:26;;;;;;;157.32;30.55;;;;;;;0.77;100.00;104129.47;5348973;27;20068;-86
2022/01/13 02:43:58;;;;;;;186.40;30.95;;;;;;;0.85;100.00;104131.25;5349493;27;20054;-87
2022/01/13 02:49:11;;;;;;;153.98;33.78;;;;;;;0.94;100.00;104102.31;5349219;27;20031;-87
2022/01/13 02:51:44;;;;;;;184.13;27.98;;;;;;;0.78;100.00;104118.13;5347788;27;20504;-86
2022/01/13 02:54:16;;;;;;;204.85;32.00;;;;;;;0.72;100.00;104119.00;5348310;27;20031;-88
2022/01/13 02:56:48;;;;;;;197.80;27.85;;;;;;;0.59;100.00;104118.06;5349443;27;20039;-88
2022/01/13 02:59:19;;;;;;;198.27;28.45;;;;;;;0.60;100.00;104125.09;5349928;27;20019;-87
2022/01/13 03:01:51;;;;;;;206.90;28.58;;;;;;;0.56;100.00;104134.72;5349541;27;20067;-87
2022/01/13 03:04:23;;;;;;;179.73;27.88;;;;;;;0.38;100.00;104098.75;5349140;27;20031;-87
2022/01/13 03:06:55;;;;;;;210.90;28.08;;;;;;;0.50;100.00;104120.69;5349181;27;20843;-87
2022/01/13 03:09:26;;;;;;;203.35;30.95;;;;;;;0.51;100.00;104115.44;5349713;27;20117;-87
2022/01/13 03:11:58;;;;;;;188.35;28.17;;;;;;;0.52;100.00;104134.69;5347550;27;20467;-86
2022/01/13 03:14:32;;;;;;;232.88;30.63;;;;;;;0.46;100.00;104104.06;5349469;27;20023;-86
2022/01/13 03:17:03;;;;;;;219.23;30.23;;;;;;;0.61;100.00;104113.69;5349911;27;20030;-87
2022/01/13 03:19:35;;;;;;;203.80;31.17;;;;;;;0.63;100.00;104113.69;5349000;27;20486;-88
2022/01/13 03:22:06;;;;;;;217.43;31.15;;;;;;;0.64;100.00;104112.84;5351636;27;20036;-87
2022/01/13 03:24:38;;;;;;;186.85;31.58;;;;;;;0.60;100.00;104093.56;5349783;27;20043;-88
2022/01/13 03:27:18;;;;;;;177.15;31.52;;;;;;;0.82;100.00;104097.06;5350873;27;20024;-87
2022/01/13 03:29:49;;;;;;;185.20;33.55;;;;;;;0.83;100.00;104100.59;5346736;27;20031;-87
2022/01/13 03:32:21;;;;;;;234.55;34.50;;;;;;;0.85;100.00;104098.84;5348068;27;20012;-87
2022/01/13 03:34:52;;;;;;;233.57;32.65;;;;;;;0.65;100.00;104107.59;5349099;27;20032;-86
2022/01/13 03:37:24;;;;;;;198.07;33.22;;;;;;;0.57;100.00;104090.94;5348302;27;20111;-86
2022/01/13 03:39:55;;;;;;;193.00;32.63;;;;;;;0.70;100.00;104091.81;5347974;27;20463;-87
2022/01/13 03:42:27;;;;;;;285.35;38.78;;;;;;;0.65;100.00;104097.06;5347569;27;20036;-87
2022/01/13 03:45:00;;;;;;;261.10;36.97;;;;;;;0.64;100.00;104094.44;5348732;27;20027;-87
2022/01/13 03:47:31;;;;;;;214.85;35.65;;;;;;;0.79;100.00;104104.97;5349770;27;20383;-86
2022/01/13 03:50:04;;;;;;;251.23;33.75;;;;;;;0.64;100.00;104108.44;5349803;27;20039;-87
2022/01/13 03:53:02;;;;;;;197.13;33.97;;;;;;;0.71;100.00;104106.72;5349357;27;20557;-86
2022/01/13 03:55:36;;;;;;;239.40;35.30;;;;;;;0.63;100.00;104096.19;5346376;27;20468;-86
2022/01/13 03:58:41;;;;;;;210.15;36.15;;;;;;;0.80;100.00;104103.22;5346956;27;20460;-86
2022/01/13 04:01:34;;;;;;;252.27;35.28;;;;;;;0.81;100.00;104099.69;5344832;27;20032;-85
2022/01/13 04:04:05;;;;;;;310.77;37.70;;;;;;;0.67;100.00;104104.97;5346808;27;20085;-86
2022/01/13 04:06:42;;;;;;;238.15;34.50;;;;;;;0.66;100.00;104101.44;5347690;27;20011;-86
2022/01/13 04:09:35;;;;;;;212.55;34.00;;;;;;;0.66;100.00;104101.44;5349065;27;20216;-86
2022/01/13 04:12:10;;;;;;;260.75;37.38;;;;;;;0.56;100.00;104094.41;5348410;27;20028;-86
2022/01/13 04:17:17;;;;;;;292.13;35.88;;;;;;;0.53;100.00;104083.94;5348294;27;20161;-87
2022/01/13 04:19:49;;;;;;;238.35;36.67;;;;;;;0.68;100.00;104094.44;5347855;27;20020;-87
2022/01/13 04:22:21;;;;;;;274.40;40.83;;;;;;;0.51;100.00;104080.44;5348137;27;20072;-86
2022/01/13 04:24:53;;;;;;;231.68;36.25;;;;;;;0.62;100.00;104088.31;5347918;27;20061;-86
2022/01/13 04:27:32;;;;;;;234.90;37.35;;;;;;;0.52;100.00;104090.91;5348672;27;20024;-87
2022/01/13 04:32:48;;;;;;;229.93;34.35;;;;;;;0.53;100.00;104092.69;5346927;27;20119;-87
2022/01/13 04:35:19;;;;;;;289.35;37.22;;;;;;;0.43;100.00;104090.03;5348081;27;20494;-86
2022/01/13 04:37:50;;;;;;;321.63;41.13;;;;;;;0.50;100.00;104097.91;5348095;27;20104;-86
2022/01/13 04:40:22;;;;;;;372.33;36.58;;;;;;;0.34;100.00;104048.88;5347618;27;20111;-86
2022/01/13 04:42:55;;;;;;;225.30;33.92;;;;;;;0.49;100.00;104077.78;5347923;27;20036;-87
2022/01/13 04:45:27;;;;;;;273.08;35.80;;;;;;;0.42;100.00;104059.38;5345471;27;20079;-86
2022/01/13 04:47:58;;;;;;;266.80;36.25;;;;;;;0.68;100.00;104088.31;5347721;27;20028;-86
2022/01/13 04:50:30;;;;;;;306.65;38.45;;;;;;;0.60;100.00;104077.81;5346310;27;20030;-87
2022/01/13 04:53:01;;;;;;;293.98;38.65;;;;;;;0.54;100.00;104081.31;5347781;27;20047;-87
2022/01/13 04:55:35;;;;;;;309.65;40.33;;;;;;;0.55;100.00;104062.03;5349127;27;20062;-87
2022/01/13 04:58:07;;;;;;;290.52;39.05;;;;;;;0.61;100.00;104081.28;5348941;27;20110;-87
2022/01/13 05:00:38;;;;;;;244.35;35.28;;;;;;;0.72;100.00;104077.81;5348019;27;20418;-86
2022/01/13 05:03:10;;;;;;;344.08;37.88;;;;;;;0.70;100.00;104065.53;5344422;27;20075;-86
2022/01/13 05:05:41;;;;;;;396.98;43.28;;;;;;;0.46;100.00;104050.66;5345442;27;20040;-86
2022/01/13 05:08:12;;;;;;;328.13;36.28;;;;;;;0.68;100.00;104085.69;5344261;27;20383;-86
2022/01/13 05:10:44;;;;;;;326.13;39.10;;;;;;;0.49;100.00;104067.28;5346115;27;20448;-86
2022/01/13 05:13:15;;;;;;;358.40;42.40;;;;;;;0.66;100.00;104087.44;5347266;27;20032;-86
2022/01/13 05:15:49;;;;;;;378.30;41.90;;;;;;;0.73;100.00;104086.56;5346208;27;20529;-86
2022/01/13 05:21:06;;;;;;;373.42;39.97;;;;;;;0.58;100.00;104084.81;5345371;27;20396;-86
2022/01/13 05:23:38;;;;;;;306.33;35.83;;;;;;;0.60;100.00;104085.69;5346973;27;20032;-86
2022/01/13 05:26:10;;;;;;;338.55;36.28;;;;;;;0.58;100.00;104095.31;5345406;27;20038;-86
2022/01/13 05:28:41;;;;;;;275.92;34.92;;;;;;;0.74;100.00;104086.56;5345907;27;20475;-86
2022/01/13 05:31:13;;;;;;;320.25;39.33;;;;;;;0.64;100.00;104079.53;5344659;27;20026;-86
2022/01/13 05:33:45;;;;;;;320.13;36.55;;;;;;;0.63;100.00;104085.69;5346886;27;20030;-86
2022/01/13 05:36:16;;;;;;;405.33;46.25;;;;;;;0.62;100.00;104091.81;5346977;27;20031;-86
2022/01/13 05:38:48;;;;;;;378.60;39.65;;;;;;;0.88;100.00;104085.72;5345346;27;20019;-86
2022/01/13 05:41:19;;;;;;;309.15;35.75;;;;;;;0.77;100.00;104093.56;5344950;27;20024;-86
2022/01/13 05:43:50;;;;;;;427.75;39.58;;;;;;;0.66;100.00;104077.78;5345890;27;20062;-86
2022/01/13 05:46:22;;;;;;;388.38;41.35;;;;;;;0.73;100.00;104073.41;5346414;27;21085;-86
2022/01/13 05:48:54;;;;;;;351.75;39.92;;;;;;;0.89;100.00;104090.06;5344714;27;20040;-85
2022/01/13 05:51:25;;;;;;;414.05;44.97;;;;;;;0.85;100.00;104093.59;5344335;27;20110;-87
2022/01/13 05:53:57;;;;;;;463.90;45.22;;;;;;;0.80;100.00;104082.19;5346410;27;20464;-86
2022/01/13 05:56:28;;;;;;;373.45;40.13;;;;;;;0.91;100.00;104088.31;5346261;27;20051;-86
2022/01/13 05:59:00;;;;;;;431.95;41.35;;;;;;;0.79;100.00;104096.19;5345661;27;20142;-87
2022/01/13 06:01:32;;;;;;;409.63;39.63;;;;;;;0.61;100.00;104082.16;5343591;27;20082;-86
2022/01/13 06:04:03;;;;;;;354.92;39.90;;;;;;;0.66;100.00;104082.19;5345367;27;20027;-87
2022/01/13 06:06:34;;;;;;;280.60;37.15;;;;;;;0.57;100.00;104070.78;5346589;27;20102;-86
2022/01/13 06:09:06;;;;;;;374.75;39.38;;;;;;;0.51;100.00;104072.53;5345248;27;20353;-86
2022/01/13 06:11:39;;;;;;;411.10;40.28;;;;;;;0.61;100.00;104083.94;5343886;27;20027;-87
2022/01/13 06:14:11;;;;;;;406.88;43.75;;;;;;;0.59;100.00;104086.53;5348306;27;20111;-86
2022/01/13 06:16:43;;;;;;;425.50;43.97;;;;;;;0.57;100.00;104085.69;5346392;27;20123;-86
2022/01/13 06:19:14;;;;;;;430.75;41.22;;;;;;;0.51;100.00;104069.91;5347099;27;20387;-86
2022/01/13 06:21:46;;;;;;;354.35;36.85;;;;;;;0.62;100.00;104086.56;5346585;27;20028;-86
2022/01/13 06:24:18;;;;;;;414.17;43.90;;;;;;;0.44;100.00;104053.28;5341463;27;20099;-87
2022/01/13 06:26:49;;;;;;;369.25;38.90;;;;;;;0.54;100.00;104060.28;5350105;27;20388;-87
2022/01/13 06:29:21;;;;;;;370.38;36.05;;;;;;;0.48;100.00;104067.28;5350300;27;20023;-86
2022/01/13 06:31:54;;;;;;;442.27;45.67;;;;;;;0.45;100.00;104075.16;5350123;27;20008;-86
2022/01/13 06:34:26;;;;;;;391.23;39.75;;;;;;;0.41;100.00;104061.13;5349828;27;20020;-86
2022/01/13 06:36:59;;;;;;;399.70;41.28;;;;;;;0.47;100.00;104073.41;5348417;27;20152;-87
2022/01/13 06:39:31;;;;;;;378.13;41.25;;;;;;;0.52;100.00;104069.91;5347321;27;20028;-87
2022/01/13 06:42:03;;;;;;;439.65;42.70;;;;;;;0.48;100.00;104067.28;5349002;27;20024;-87
2022/01/13 06:44:35;;;;;;;374.67;37.35;;;;;;;0.52;100.00;104074.28;5349084;27;20023;-87
2022/01/13 06:47:07;;;;;;;368.90;39.33;;;;;;;0.49;100.00;104069.00;5347979;27;20463;-86
2022/01/13 06:49:39;;;;;;;440.13;39.63;;;;;;;0.45;100.00;104060.25;5347103;27;20015;-86
2022/01/13 06:52:11;;;;;;;397.90;39.72;;;;;;;0.51;100.00;104083.06;5346233;27;20689;-87
2022/01/13 06:54:43;;;;;;;355.25;36.85;;;;;;;0.42;100.00;104065.53;5349831;27;20411;-87
2022/01/13 06:57:15;;;;;;;437.20;37.80;;;;;;;0.50;100.00;104078.66;5348927;27;20372;-86
2022/01/13 06:59:47;;;;;;;394.95;37.88;;;;;;;0.53;100.00;104079.53;5347740;27;20081;-87
2022/01/13 07:02:19;;;;;;;405.10;40.33;;;;;;;0.48;100.00;104076.03;5350394;27;20098;-87
2022/01/13 07:04:50;;;;;;;392.40;39.05;;;;;;;0.56;100.00;104081.28;5350498;27;20057;-87
2022/01/13 07:07:22;;;;;;;362.50;37.47;;;;;;;0.62;100.00;104085.69;5348885;27;20421;-86
2022/01/13 07:09:53;;;;;;;375.98;41.53;;;;;;;0.64;100.00;104082.19;5360892;27;20079;-87
2022/01/13 07:12:25;;;;;;;372.30;37.72;;;;;;;0.61;100.00;104074.28;5358669;27;20115;-87
2022/01/13 07:14:57;;;;;;;424.98;35.95;;;;;;;0.60;100.00;104071.66;5363384;27;20040;-87
2022/01/13 07:17:30;;;;;;;341.95;37.10;;;;;;;0.66;100.00;104066.41;5362657;27;20380;-87
2022/01/13 07:20:03;;;;;;;443.85;37.95;;;;;;;0.53;100.00;104055.03;5362923;27;20032;-86
2022/01/13 07:22:36;;;;;;;412.52;42.22;;;;;;;0.50;100.00;104053.25;5360359;27;20089;-87
2022/01/13 07:25:09;;;;;;;393.25;43.30;;;;;;;0.63;100.00;104080.44;5332471;28;20024;-87
2022/01/13 07:27:41;;;;;;;362.55;38.30;;;;;;;0.56;100.00;104068.16;5330045;27;20119;-86
2022/01/13 07:30:12;;;;;;;308.92;40.00;;;;;;;0.68;100.00;104077.78;5341396;27;20020;-86
2022/01/13 07:32:44;;;;;;;315.13;39.35;;;;;;;0.69;100.00;104082.19;5350533;27;20425;-85
2022/01/13 07:35:15;;;;;;;304.38;39.53;;;;;;;0.72;100.00;104080.44;5353184;27;20024;-86
2022/01/13 07:37:47;;;;;;;325.90;38.35;;;;;;;0.65;100.00;104068.19;5352049;27;20077;-87
2022/01/13 07:40:18;;;;;;;300.50;38.00;;;;;;;0.77;100.00;104076.94;5350786;27;20019;-85
2022/01/13 07:42:50;;;;;;;296.65;36.03;;;;;;;0.65;100.00;104062.03;5350665;27;20032;-85
2022/01/13 07:45:21;;;;;;;299.45;37.90;;;;;;;0.67;100.00;104065.56;5349615;27;20012;-87
2022/01/13 07:47:53;;;;;;;302.23;35.60;;;;;;;0.68;100.00;104056.78;5350238;27;20024;-86
2022/01/13 07:50:24;;;;;;;263.40;34.08;;;;;;;0.69;100.00;104056.78;5350739;27;20115;-87
2022/01/13 07:52:59;;;;;;;247.50;33.50;;;;;;;0.92;100.00;104090.06;5350501;27;20032;-87
2022/01/13 07:55:30;;;;;;;286.38;34.63;;;;;;;0.74;100.00;104072.56;5351587;27;20792;-87
2022/01/13 07:58:02;;;;;;;273.83;33.00;;;;;;;0.90;100.00;104086.56;5349641;27;20085;-87
2022/01/13 08:00:36;;;;;;;235.13;34.10;;;;;;;0.84;100.00;104094.44;5351950;27;20106;-87
2022/01/13 08:03:07;;;;;;;245.88;34.22;;;;;;;0.94;100.00;104091.81;5350615;27;20058;-85
2022/01/13 08:05:39;;;;;;;225.85;31.33;;;;;;;0.84;100.00;104060.28;5350059;27;20016;-86
2022/01/13 08:08:10;;;;;;;254.85;34.95;;;;;;;0.82;100.00;104078.66;5350576;27;20027;-85
2022/01/13 08:10:42;;;;;;;256.88;35.20;;;;;;;0.89;100.00;104097.94;5349528;27;20106;-85
2022/01/13 08:13:13;;;;;;;264.00;35.85;;;;;;;0.73;100.00;104068.16;5350642;27;20050;-87
2022/01/13 08:15:44;;;;;;;282.38;34.92;;;;;;;0.84;100.00;104087.47;5350059;27;20020;-86
2022/01/13 08:21:06;;;;;;;382.75;37.53;;;;;;;0.91;100.00;104098.81;5354616;27;20122;-87
2022/01/13 08:23:41;;;;;;;255.57;34.90;;;;;;;1.09;100.00;104100.59;5359468;27;20080;-87
2022/01/13 08:26:12;;;;;;;303.95;35.63;;;;;;;1.06;100.00;104106.72;5358030;27;20024;-86
2022/01/13 08:28:44;;;;;;;243.60;34.55;;;;;;;1.02;100.00;104101.47;5350992;27;20015;-85
2022/01/13 08:31:15;;;;;;;326.85;34.00;;;;;;;0.96;100.00;104083.06;5349218;27;20042;-86
2022/01/13 08:33:47;;;;;;;229.73;32.45;;;;;;;1.06;100.00;104098.81;5343504;27;20173;-85
2022/01/13 08:36:18;;;;;;;257.98;37.13;;;;;;;1.09;100.00;104116.38;5327338;27;20027;-85
2022/01/13 08:38:50;;;;;;;212.73;32.55;;;;;;;1.15;100.00;104118.13;5328733;28;20020;-86
2022/01/13 08:41:21;;;;;;;245.60;33.85;;;;;;;1.06;100.00;104101.44;5346101;27;20124;-86
2022/01/13 08:43:54;;;;;;;296.52;35.53;;;;;;;1.21;100.00;104115.47;5348959;27;20046;-86
2022/01/13 08:46:26;;;;;;;230.93;33.97;;;;;;;1.13;100.00;104097.94;5348920;27;20059;-86
2022/01/13 08:48:57;;;;;;;357.17;38.13;;;;;;;1.13;100.00;104108.47;5349453;27;20055;-86
2022/01/13 08:51:29;;;;;;;320.83;36.13;;;;;;;1.09;100.00;104108.47;5348732;27;20471;-86
2022/01/13 08:54:00;;;;;;;226.30;34.83;;;;;;;1.25;100.00;104131.25;5349295;27;20024;-86
2022/01/13 08:56:32;;;;;;;251.95;34.85;;;;;;;1.18;100.00;104107.59;5348318;27;20030;-86
2022/01/13 08:59:03;;;;;;;229.73;32.90;;;;;;;1.31;100.00;104115.47;5347978;27;20020;-86
2022/01/13 09:01:35;;;;;;;279.08;35.83;;;;;;;1.21;100.00;104120.72;5346937;27;20043;-86
2022/01/13 09:04:06;;;;;;;238.65;34.63;;;;;;;1.31;100.00;104131.25;5347672;27;20016;-86
2022/01/13 09:06:41;;;;;;;285.02;35.20;;;;;;;1.26;100.00;104130.38;5346699;27;20114;-85
2022/01/13 09:09:15;;;;;;;332.83;38.80;;;;;;;1.27;100.00;104128.63;5348020;27;20020;-86
2022/01/13 09:11:46;;;;;;;242.93;33.85;;;;;;;1.30;100.00;104129.50;5346440;27;20020;-86
2022/01/13 09:14:24;;;;;;;276.85;36.22;;;;;;;1.23;100.00;104132.13;5347149;27;20019;-85
2022/01/13 09:16:57;;;;;;;272.33;34.85;;;;;;;1.24;100.00;104139.13;5346406;27;20032;-85
2022/01/13 09:19:29;;;;;;;270.00;34.83;;;;;;;1.25;100.00;104148.78;5347051;27;20322;-86
2022/01/13 09:22:00;;;;;;;275.75;35.83;;;;;;;1.24;100.00;104133.88;5346209;27;20027;-85
2022/01/13 09:24:32;;;;;;;297.05;35.17;;;;;;;1.27;100.00;104140.00;5328343;27;20048;-85
2022/01/13 09:27:05;;;;;;;242.27;34.72;;;;;;;1.21;100.00;104116.34;5328223;28;20042;-85
2022/01/13 09:29:36;;;;;;;241.88;37.53;;;;;;;1.28;100.00;104140.88;5326460;27;20020;-84
2022/01/13 09:32:08;;;;;;;271.17;33.28;;;;;;;1.21;100.00;104137.41;5325455;28;20044;-85
2022/01/13 09:34:41;;;;;;;285.23;38.65;;;;;;;1.27;100.00;104147.03;5327760;28;20035;-85
2022/01/13 09:37:13;;;;;;;275.98;35.88;;;;;;;1.18;100.00;104141.78;5325197;28;20024;-85
2022/01/13 09:39:44;;;;;;;261.73;35.72;;;;;;;1.18;100.00;104149.66;5330992;27;20391;-85
2022/01/13 09:42:17;;;;;;;257.60;31.70;;;;;;;1.23;100.00;104155.81;5348131;27;20543;-86
2022/01/13 09:44:49;;;;;;;276.38;35.53;;;;;;;1.25;100.00;104146.16;5347864;27;20114;-85
2022/01/13 09:47:21;;;;;;;270.75;35.20;;;;;;;1.28;100.00;104140.88;5347785;27;20051;-85
2022/01/13 09:49:52;;;;;;;257.75;34.25;;;;;;;1.24;100.00;104137.38;5347694;27;20024;-86
2022/01/13 09:52:24;;;;;;;262.92;32.60;;;;;;;1.29;100.00;104137.38;5345863;27;20019;-85
2022/01/13 09:54:55;;;;;;;282.55;36.20;;;;;;;1.31;100.00;104138.25;5338023;27;20051;-86
2022/01/13 09:57:27;;;;;;;214.60;31.70;;;;;;;1.47;100.00;104147.88;5324327;28;20022;-85
2022/01/13 10:00:00;;;;;;;208.18;32.25;;;;;;;1.61;100.00;104145.19;5341901;27;20113;-86
2022/01/13 10:02:31;;;;;;;242.48;31.90;;;;;;;1.59;100.00;104143.47;5347494;27;20442;-86
2022/01/13 10:05:03;;;;;;;278.85;36.10;;;;;;;1.49;100.00;104129.44;5347739;27;20027;-86
2022/01/13 10:07:43;;;;;;;334.80;37.15;;;;;;;1.41;100.00;104124.22;5347616;27;20460;-87
2022/01/13 10:10:18;;;;;;;219.00;30.88;;;;;;;1.66;100.00;104142.56;5347371;27;20035;-86
2022/01/13 10:13:00;;;;;;;223.35;30.75;;;;;;;1.67;100.00;104144.34;5347711;27;20018;-86
2022/01/13 10:18:51;;;;;;;269.25;32.65;;;;;;;1.79;100.00;104140.78;5312845;28;20571;-85
2022/01/13 10:21:23;;;;;;;228.68;32.63;;;;;;;1.70;100.00;104139.94;5352408;27;20055;-85
2022/01/13 10:24:06;;;;;;;231.35;31.50;;;;;;;1.71;100.00;104146.06;5359522;27;20157;-86
2022/01/13 10:26:40;;;;;;;159.55;28.08;;;;;;;1.72;100.00;104136.41;5357710;27;20020;-86
2022/01/13 10:29:13;;;;;;;220.10;30.02;;;;;;;1.81;100.00;104137.28;5354423;27;20601;-86
2022/01/13 10:31:50;;;;;;;240.80;31.85;;;;;;;1.82;100.00;104138.13;5356323;27;20028;-85
2022/01/13 10:34:26;;;;;;;224.65;33.60;;;;;;;1.75;100.00;104139.03;5358215;27;20420;-85
2022/01/13 10:37:05;;;;;;;207.27;30.58;;;;;;;1.80;100.00;104146.03;5358075;27;20035;-85
2022/01/13 10:39:49;;;;;;;170.20;29.38;;;;;;;1.96;100.00;104153.91;5349916;27;20081;-85
2022/01/13 10:45:14;;;;;;;159.98;27.48;;;;;;;1.98;100.00;104134.59;5349491;27;20496;-86
2022/01/13 10:47:57;;;;;;;245.00;33.25;;;;;;;1.92;100.00;104131.97;5350859;27;20092;-86
2022/01/13 10:50:50;;;;;;;154.27;27.52;;;;;;;2.10;100.00;104146.81;5348507;27;20034;-85
2022/01/13 10:53:25;;;;;;;187.50;28.95;;;;;;;1.93;100.00;104133.72;5349827;27;20019;-85
2022/01/13 10:56:09;;;;;;;160.73;25.67;;;;;;;2.05;100.00;104135.41;5350017;27;20015;-85
2022/01/13 10:58:49;;;;;;;156.82;28.42;;;;;;;2.15;100.00;104139.75;5350215;27;20023;-85
2022/01/13 11:01:21;;;;;;;169.13;27.42;;;;;;;1.96;100.00;104122.28;5349954;27;20019;-85
2022/01/13 11:03:54;;;;;;;175.02;29.85;;;;;;;2.02;100.00;104128.41;5350476;27;20034;-85
2022/01/13 11:06:29;;;;;;;171.18;28.27;;;;;;;2.03;100.00;104116.13;5349627;27;20020;-85
2022/01/13 11:09:00;;;;;;;190.70;27.83;;;;;;;1.90;100.00;104120.56;5348083;27;20104;-85
2022/01/13 11:11:35;;;;;;;120.82;24.33;;;;;;;1.96;100.00;104112.63;5352469;27;20024;-85
2022/01/13 11:14:10;;;;;;;152.75;27.23;;;;;;;1.92;100.00;104100.38;5351042;27;20482;-85
2022/01/13 11:16:41;;;;;;;165.60;26.20;;;;;;;1.97;100.00;104103.88;5349381;27;20019;-85
2022/01/13 11:19:15;;;;;;;148.15;26.95;;;;;;;1.95;100.00;104113.53;5348619;27;20023;-85
2022/01/13 11:21:48;;;;;;;130.73;27.33;;;;;;;2.07;100.00;104094.19;5349446;27;20028;-85
2022/01/13 11:24:19;;;;;;;151.55;27.15;;;;;;;1.96;100.00;104098.59;5329122;27;20009;-84
2022/01/13 11:26:51;;;;;;;156.60;28.23;;;;;;;1.89;100.00;104093.38;5329657;27;20464;-85
2022/01/13 11:29:23;;;;;;;123.32;26.45;;;;;;;2.10;100.00;104098.53;5349701;27;20078;-85
2022/01/13 11:31:56;;;;;;;147.25;27.05;;;;;;;2.10;100.00;104091.50;5349548;27;20999;-85
2022/01/13 11:34:28;;;;;;;134.60;26.13;;;;;;;2.10;100.00;104090.63;5347755;27;20019;-85
2022/01/13 11:37:00;;;;;;;108.97;24.25;;;;;;;2.30;100.00;104083.50;5349205;27;20448;-85
2022/01/13 11:39:43;;;;;;;117.80;26.27;;;;;;;2.24;100.00;104091.44;5347914;27;20031;-85
2022/01/13 11:42:15;;;;;;;150.90;29.77;;;;;;;2.10;100.00;104091.50;5347847;27;20118;-85
2022/01/13 11:45:08;;;;;;;132.93;23.83;;;;;;;2.23;100.00;104087.94;5348218;27;20028;-85
2022/01/13 11:47:41;;;;;;;103.38;22.38;;;;;;;2.18;100.00;104092.34;5348781;27;20102;-85
2022/01/13 11:50:21;;;;;;;114.80;24.00;;;;;;;2.25;100.00;104083.53;5349470;27;20054;-86
2022/01/13 11:52:53;;;;;;;98.88;23.67;;;;;;;2.36;100.00;104101.03;5348587;27;20095;-85
2022/01/13 11:55:41;;;;;;;130.60;24.95;;;;;;;2.42;100.00;104085.16;5348802;27;20103;-85
2022/01/13 11:58:16;;;;;;;144.85;27.73;;;;;;;2.37;100.00;104089.63;5347807;27;20029;-85
2022/01/13 12:00:51;;;;;;;107.18;24.63;;;;;;;2.28;100.00;104093.19;5347394;27;20073;-85
2022/01/13 12:03:33;;;;;;;82.05;23.40;;;;;;;2.46;100.00;104076.38;5347801;27;20403;-84